createdAt,value
2022-12-09T00:02:02.628Z,31.52
2022-12-09T00:04:29.485Z,34.17
2022-12-09T00:06:56.003Z,34.85
2022-12-09T00:09:22.645Z,36.43
2022-12-09T00:11:52.761Z,30.98
2022-12-09T00:14:19.318Z,33.67
2022-12-09T00:16:46.067Z,42.08
2022-12-09T00:19:12.629Z,37.88
2022-12-09T00:21:39.170Z,31.27
2022-12-09T00:24:08.026Z,29.05
2022-12-09T00:26:34.589Z,30.80
2022-12-09T00:29:01.782Z,31.27
2022-12-09T00:31:34.072Z,30.05
2022-12-09T00:34:03.840Z,30.60
2022-12-09T00:36:31.026Z,29.60
2022-12-09T00:38:58.586Z,30.83
2022-12-09T00:41:25.676Z,31.52
2022-12-09T00:43:52.196Z,27.73
2022-12-09T00:46:20.265Z,26.07
2022-12-09T00:48:47.150Z,31.33
2022-12-09T00:51:15.882Z,30.40
2022-12-09T00:53:42.641Z,28.52
2022-12-09T00:56:10.953Z,28.92
2022-12-09T00:58:39.868Z,30.40
2022-12-09T01:01:06.625Z,28.30
2022-12-09T01:03:33.422Z,28.13
2022-12-09T01:06:00.332Z,23.45
2022-12-09T01:08:26.809Z,32.95
2022-12-09T01:10:53.668Z,24.07
2022-12-09T01:13:20.112Z,28.73
2022-12-09T01:15:46.866Z,28.95
2022-12-09T01:18:13.583Z,24.63
2022-12-09T01:20:40.339Z,27.10
2022-12-09T01:23:07.236Z,28.77
2022-12-09T01:25:34.204Z,28.65
2022-12-09T01:28:00.969Z,27.00
2022-12-09T01:30:27.761Z,30.33
2022-12-09T01:32:54.570Z,27.17
2022-12-09T01:35:21.244Z,23.63
2022-12-09T01:37:47.950Z,26.00
2022-12-09T01:40:19.674Z,22.73
2022-12-09T01:42:46.165Z,24.90
2022-12-09T01:45:22.098Z,22.80
2022-12-09T01:47:52.006Z,25.63
2022-12-09T01:50:18.869Z,23.23
2022-12-09T01:52:46.681Z,27.63
2022-12-09T01:55:13.510Z,22.02
2022-12-09T01:57:40.667Z,24.15
2022-12-09T02:00:08.147Z,21.07
2022-12-09T02:02:36.193Z,24.27
2022-12-09T02:05:03.714Z,21.98
2022-12-09T02:07:30.296Z,20.30
2022-12-09T02:09:57.134Z,23.45
2022-12-09T02:12:32.485Z,23.83
2022-12-09T02:15:04.817Z,23.33
2022-12-09T02:18:07.713Z,28.85
2022-12-09T02:20:41.709Z,34.00
2022-12-09T02:23:23.652Z,32.92
2022-12-09T02:26:01.565Z,27.53
2022-12-09T02:29:14.268Z,30.23
2022-12-09T02:32:18.556Z,25.35
2022-12-09T02:34:53.640Z,27.05
2022-12-09T02:37:23.717Z,25.92
2022-12-09T02:39:53.159Z,29.07
2022-12-09T02:42:22.292Z,28.20
2022-12-09T02:44:50.116Z,26.25
2022-12-09T02:47:19.712Z,28.05
2022-12-09T02:49:50.658Z,26.27
2022-12-09T02:52:18.379Z,24.23
2022-12-09T02:54:45.178Z,26.90
2022-12-09T02:57:20.611Z,24.50
2022-12-09T02:59:47.050Z,32.92
2022-12-09T03:02:22.729Z,31.10
2022-12-09T03:05:13.068Z,25.80
2022-12-09T03:07:55.935Z,26.73
2022-12-09T03:10:28.504Z,26.35
2022-12-09T03:13:06.383Z,22.60
2022-12-09T03:15:35.644Z,21.92
2022-12-09T03:18:04.793Z,25.90
2022-12-09T03:20:34.547Z,24.08
2022-12-09T03:23:03.712Z,19.98
2022-12-09T03:25:43.656Z,21.70
2022-12-09T03:28:40.149Z,21.20
2022-12-09T03:31:11.269Z,22.10
2022-12-09T03:33:37.952Z,22.95
2022-12-09T03:36:06.915Z,22.60
2022-12-09T03:38:36.756Z,22.63
2022-12-09T03:41:32.863Z,20.90
2022-12-09T03:44:04.124Z,23.23
2022-12-09T03:46:30.808Z,17.80
2022-12-09T03:48:58.066Z,21.38
2022-12-09T03:51:44.464Z,20.02
2022-12-09T03:54:19.123Z,23.05
2022-12-09T03:56:49.341Z,17.77
2022-12-09T03:59:16.312Z,22.23
2022-12-09T04:01:44.707Z,19.73
2022-12-09T04:04:13.645Z,21.20
2022-12-09T04:06:40.537Z,17.00
2022-12-09T04:09:07.507Z,15.57
2022-12-09T04:11:34.376Z,18.15
2022-12-09T04:14:01.106Z,18.13
2022-12-09T04:16:27.773Z,20.02
2022-12-09T04:18:54.779Z,18.35
2022-12-09T04:21:21.508Z,21.03
2022-12-09T04:23:47.972Z,17.92
2022-12-09T04:26:16.469Z,19.33
2022-12-09T04:28:43.295Z,19.55
2022-12-09T04:31:14.632Z,23.75
2022-12-09T04:33:41.907Z,22.40
2022-12-09T04:36:11.215Z,22.30
2022-12-09T04:38:37.946Z,18.77
2022-12-09T04:41:05.024Z,20.67
2022-12-09T04:43:31.518Z,21.73
2022-12-09T04:46:04.687Z,21.57
2022-12-09T04:48:31.705Z,23.67
2022-12-09T04:51:01.575Z,19.38
2022-12-09T04:53:28.569Z,21.67
2022-12-09T04:56:02.926Z,24.60
2022-12-09T04:58:29.901Z,20.73
2022-12-09T05:00:56.719Z,24.65
2022-12-09T05:03:24.142Z,23.77
2022-12-09T05:05:50.794Z,26.27
2022-12-09T05:08:17.792Z,24.08
2022-12-09T05:10:49.713Z,23.73
2022-12-09T05:13:17.204Z,27.55
2022-12-09T05:15:43.769Z,26.63
2022-12-09T05:18:10.558Z,25.27
2022-12-09T05:20:41.223Z,23.45
2022-12-09T05:23:14.988Z,24.37
2022-12-09T05:25:42.184Z,25.75
2022-12-09T05:28:08.995Z,21.65
2022-12-09T05:30:36.973Z,18.67
2022-12-09T05:33:07.724Z,20.58
2022-12-09T05:35:40.141Z,23.50
2022-12-09T05:38:11.764Z,16.70
2022-12-09T05:40:38.246Z,18.00
2022-12-09T05:43:05.023Z,17.85
2022-12-09T05:45:31.785Z,16.20
2022-12-09T05:47:58.359Z,17.23
2022-12-09T05:50:25.049Z,16.70
2022-12-09T05:52:52.344Z,15.82
2022-12-09T05:55:19.021Z,19.85
2022-12-09T05:57:45.990Z,15.50
2022-12-09T06:00:13.478Z,18.47
2022-12-09T06:02:41.244Z,19.00
2022-12-09T06:05:08.693Z,19.67
2022-12-09T06:07:36.028Z,21.35
2022-12-09T06:10:04.054Z,24.35
2022-12-09T06:12:32.699Z,19.97
2022-12-09T06:14:59.607Z,16.85
2022-12-09T06:17:26.274Z,19.42
2022-12-09T06:19:52.801Z,18.75
2022-12-09T06:22:19.644Z,16.75
2022-12-09T06:24:46.208Z,16.67
2022-12-09T06:27:12.873Z,21.40
2022-12-09T06:29:39.600Z,16.45
2022-12-09T06:32:08.632Z,20.33
2022-12-09T06:34:37.997Z,20.98
2022-12-09T06:37:06.913Z,18.67
2022-12-09T06:39:33.652Z,17.42
2022-12-09T06:42:00.601Z,22.02
2022-12-09T06:44:27.466Z,17.52
2022-12-09T06:46:54.051Z,27.88
2022-12-09T06:49:21.368Z,24.13
2022-12-09T06:51:48.053Z,20.77
2022-12-09T06:54:14.737Z,18.15
2022-12-09T06:56:41.324Z,18.30
2022-12-09T06:59:13.151Z,18.83
2022-12-09T07:01:39.912Z,17.67
2022-12-09T07:04:07.423Z,19.58
2022-12-09T07:06:39.437Z,20.75
2022-12-09T07:09:09.125Z,18.70
2022-12-09T07:11:36.802Z,18.52
2022-12-09T07:14:04.404Z,19.57
2022-12-09T07:16:31.282Z,17.25
2022-12-09T07:18:59.390Z,21.42
2022-12-09T07:21:26.414Z,17.50
2022-12-09T07:23:53.233Z,16.02
2022-12-09T07:26:20.034Z,17.73
2022-12-09T07:28:48.184Z,18.35
2022-12-09T07:31:25.669Z,22.95
2022-12-09T07:33:54.364Z,19.77
2022-12-09T07:36:22.491Z,24.63
2022-12-09T07:38:53.948Z,22.00
2022-12-09T07:41:20.463Z,22.58
2022-12-09T07:43:48.148Z,22.15
2022-12-09T07:46:16.516Z,19.67
2022-12-09T07:48:43.446Z,24.58
2022-12-09T07:51:10.281Z,19.70
2022-12-09T07:53:37.973Z,17.55
2022-12-09T07:56:07.913Z,20.55
2022-12-09T07:58:35.539Z,19.30
2022-12-09T08:01:07.561Z,18.52
2022-12-09T08:03:35.866Z,16.50
2022-12-09T08:06:03.782Z,16.08
2022-12-09T08:08:32.411Z,17.10
2022-12-09T08:11:22.665Z,17.05
2022-12-09T08:13:50.351Z,16.88
2022-12-09T08:16:19.807Z,18.23
2022-12-09T08:18:47.949Z,17.73
2022-12-09T08:21:21.239Z,16.90
2022-12-09T08:23:48.047Z,15.10
2022-12-09T08:26:16.961Z,15.32
2022-12-09T08:28:46.798Z,16.50
2022-12-09T08:31:19.564Z,14.55
2022-12-09T08:33:49.103Z,23.73
2022-12-09T08:36:19.122Z,18.77
2022-12-09T08:38:48.767Z,18.90
2022-12-09T08:41:20.790Z,18.87
2022-12-09T08:43:48.369Z,17.10
2022-12-09T08:46:15.474Z,17.45
2022-12-09T08:48:42.676Z,16.77
2022-12-09T08:51:11.391Z,16.17
2022-12-09T08:53:38.402Z,18.83
2022-12-09T08:56:09.693Z,19.95
2022-12-09T08:58:36.796Z,22.20
2022-12-09T09:01:04.031Z,19.42
2022-12-09T09:03:32.266Z,22.50
2022-12-09T09:06:09.260Z,21.87
2022-12-09T09:08:37.467Z,20.75
2022-12-09T09:11:10.448Z,19.90
2022-12-09T09:13:39.255Z,23.02
2022-12-09T09:16:17.671Z,23.08
2022-12-09T09:18:46.980Z,21.43
2022-12-09T09:21:16.113Z,22.63
2022-12-09T09:23:43.747Z,21.95
2022-12-09T09:26:12.408Z,21.15
2022-12-09T09:28:39.897Z,21.35
2022-12-09T09:31:08.433Z,21.20
2022-12-09T09:33:35.617Z,22.65
2022-12-09T09:36:09.883Z,24.45
2022-12-09T09:38:37.502Z,21.75
2022-12-09T09:41:21.771Z,23.05
2022-12-09T09:43:48.627Z,20.70
2022-12-09T09:46:31.050Z,20.70
2022-12-09T09:49:00.734Z,18.70
2022-12-09T09:51:27.420Z,18.92
2022-12-09T09:53:55.580Z,21.70
2022-12-09T09:56:35.433Z,20.60
2022-12-09T09:59:23.821Z,21.65
2022-12-09T10:02:14.940Z,15.98
2022-12-09T10:05:10.407Z,19.67
2022-12-09T10:07:48.655Z,18.38
2022-12-09T10:10:33.782Z,19.73
2022-12-09T10:13:22.296Z,17.25
2022-12-09T10:16:17.964Z,18.40
2022-12-09T10:19:08.019Z,19.08
2022-12-09T10:21:41.036Z,20.08
2022-12-09T10:24:27.724Z,17.57
2022-12-09T10:27:21.134Z,17.92
2022-12-09T10:30:05.189Z,18.35
2022-12-09T10:32:35.580Z,15.80
2022-12-09T10:35:13.487Z,15.95
2022-12-09T10:37:40.933Z,15.53
2022-12-09T10:40:07.912Z,16.60
2022-12-09T10:43:02.866Z,17.98
2022-12-09T10:45:52.457Z,16.45
2022-12-09T10:48:32.375Z,15.38
2022-12-09T10:51:02.851Z,30.13
2022-12-09T10:53:32.486Z,27.05
2022-12-09T10:56:00.411Z,22.70
2022-12-09T10:58:29.108Z,25.02
2022-12-09T11:01:00.887Z,20.63
2022-12-09T11:03:36.301Z,21.87
2022-12-09T11:06:15.460Z,19.70
2022-12-09T11:08:50.507Z,22.50
2022-12-09T11:11:18.076Z,19.45
2022-12-09T11:13:45.034Z,20.13
2022-12-09T11:16:12.493Z,20.00
2022-12-09T11:18:45.565Z,18.52
2022-12-09T11:21:48.509Z,24.23
2022-12-09T11:24:23.159Z,21.13
2022-12-09T11:26:50.272Z,20.08
2022-12-09T11:29:19.376Z,19.67
2022-12-09T11:31:46.585Z,19.67
2022-12-09T11:34:16.237Z,22.08
2022-12-09T11:36:50.583Z,21.65
2022-12-09T11:39:22.253Z,26.00
2022-12-09T11:42:16.502Z,20.50
2022-12-09T11:44:58.502Z,19.90
2022-12-09T11:47:33.617Z,21.30
2022-12-09T11:50:17.703Z,22.30
2022-12-09T11:53:11.512Z,23.65
2022-12-09T11:55:46.808Z,22.57
2022-12-09T11:58:22.746Z,21.48
2022-12-09T12:00:54.739Z,21.23
2022-12-09T12:03:31.790Z,20.27
2022-12-09T12:06:01.164Z,20.88
2022-12-09T12:08:54.831Z,19.27
2022-12-09T12:11:27.098Z,20.98
2022-12-09T12:14:00.321Z,22.02
2022-12-09T12:16:37.801Z,22.92
2022-12-09T12:19:14.158Z,22.70
2022-12-09T12:22:08.525Z,27.97
2022-12-09T12:25:00.184Z,25.70
2022-12-09T12:27:30.047Z,22.02
2022-12-09T12:30:06.305Z,20.65
2022-12-09T12:33:11.761Z,23.85
2022-12-09T12:36:05.056Z,24.87
2022-12-09T12:39:04.991Z,27.83
2022-12-09T12:41:48.987Z,21.02
2022-12-09T12:44:56.072Z,21.30
2022-12-09T12:47:22.523Z,23.65
2022-12-09T12:50:07.575Z,27.50
2022-12-09T12:53:00.290Z,27.35
2022-12-09T12:55:55.136Z,22.33
2022-12-09T12:58:33.805Z,25.27
2022-12-09T13:01:07.698Z,25.42
2022-12-09T13:04:00.549Z,21.10
2022-12-09T13:06:52.337Z,27.38
2022-12-09T13:09:26.064Z,24.92
2022-12-09T13:12:18.079Z,24.80
2022-12-09T13:14:52.287Z,23.65
2022-12-09T13:17:57.614Z,25.47
2022-12-09T13:21:04.089Z,24.52
2022-12-09T13:23:52.282Z,23.77
2022-12-09T13:26:45.360Z,22.38
2022-12-09T13:29:32.847Z,24.23
2022-12-09T13:32:21.563Z,23.73
2022-12-09T13:34:54.584Z,21.45
2022-12-09T13:37:33.244Z,24.35
2022-12-09T13:40:01.931Z,24.65
2022-12-09T13:43:00.278Z,22.17
2022-12-09T13:45:48.377Z,21.27
2022-12-09T13:48:17.229Z,21.90
2022-12-09T13:50:43.924Z,23.38
2022-12-09T13:53:57.476Z,20.80
2022-12-09T13:56:35.132Z,19.52
2022-12-09T13:59:21.532Z,22.03
2022-12-09T14:05:35.874Z,18.80
2022-12-09T14:08:23.123Z,19.63
2022-12-09T14:10:50.840Z,17.13
2022-12-09T14:13:30.519Z,16.57
2022-12-09T14:16:28.012Z,17.20
2022-12-09T14:18:56.095Z,21.50
2022-12-09T14:21:27.200Z,18.67
2022-12-09T14:24:09.049Z,20.65
2022-12-09T14:26:46.516Z,17.43
2022-12-09T14:29:45.106Z,22.02
2022-12-09T14:32:21.810Z,21.65
2022-12-09T14:35:07.386Z,21.20
2022-12-09T14:37:33.797Z,24.45
2022-12-09T14:40:15.440Z,20.27
2022-12-09T14:43:05.041Z,24.58
2022-12-09T14:45:46.940Z,23.50
2022-12-09T14:48:18.771Z,24.77
2022-12-09T14:50:45.268Z,23.30
2022-12-09T14:53:23.491Z,24.37
2022-12-09T14:55:50.102Z,22.60
2022-12-09T14:58:22.897Z,23.05
2022-12-09T15:00:59.595Z,26.27
2022-12-09T15:03:39.489Z,27.15
2022-12-09T15:06:19.570Z,25.57
2022-12-09T15:08:46.759Z,26.70
2022-12-09T15:11:20.328Z,25.83
2022-12-09T15:13:49.397Z,23.60
2022-12-09T15:16:19.231Z,26.48
2022-12-09T15:18:46.243Z,28.07
2022-12-09T15:21:28.690Z,21.63
2022-12-09T15:23:57.425Z,24.33
2022-12-09T15:26:35.698Z,22.77
2022-12-09T15:29:05.212Z,20.55
2022-12-09T15:31:34.328Z,25.30
2022-12-09T15:34:11.578Z,24.58
2022-12-09T15:36:44.533Z,35.25
2022-12-09T15:39:18.788Z,24.73
2022-12-09T15:42:06.864Z,27.38
2022-12-09T15:44:40.976Z,25.30
2022-12-09T15:47:35.350Z,28.70
2022-12-09T15:50:20.848Z,30.58
2022-12-09T15:52:57.367Z,28.20
2022-12-09T15:55:32.452Z,29.65
2022-12-09T15:58:00.684Z,27.97
2022-12-09T16:00:27.184Z,27.52
2022-12-09T16:02:53.807Z,28.08
2022-12-09T16:05:25.159Z,25.05
2022-12-09T16:07:56.039Z,26.90
2022-12-09T16:10:26.664Z,26.97
2022-12-09T16:13:20.368Z,28.52
2022-12-09T16:15:58.059Z,27.58
2022-12-09T16:18:32.969Z,30.27
2022-12-09T16:21:02.617Z,27.98
2022-12-09T16:23:29.154Z,28.97
2022-12-09T16:26:07.086Z,28.23
2022-12-09T16:28:34.361Z,27.10
2022-12-09T16:31:03.288Z,29.05
2022-12-09T16:33:37.318Z,30.73
2022-12-09T16:36:07.055Z,27.03
2022-12-09T16:38:38.409Z,30.98
2022-12-09T16:41:08.308Z,26.48
2022-12-09T16:43:36.206Z,30.42
2022-12-09T16:46:28.191Z,38.53
2022-12-09T16:48:54.597Z,31.90
2022-12-09T16:51:24.646Z,35.88
2022-12-09T16:53:52.203Z,34.22
2022-12-09T16:56:23.709Z,27.98
2022-12-09T16:58:50.348Z,29.63
2022-12-09T17:01:17.945Z,29.60
2022-12-09T17:03:51.638Z,29.98
2022-12-09T17:06:20.333Z,29.08
2022-12-09T17:08:46.888Z,26.15
2022-12-09T17:11:14.537Z,24.85
2022-12-09T17:13:41.032Z,28.13
2022-12-09T17:16:07.885Z,25.27
2022-12-09T17:18:35.603Z,31.75
2022-12-09T17:21:07.733Z,29.50
2022-12-09T17:23:39.634Z,29.17
2022-12-09T17:26:11.298Z,30.60
2022-12-09T17:28:39.781Z,33.47
2022-12-09T17:31:18.044Z,35.92
2022-12-09T17:33:44.769Z,29.35
2022-12-09T17:36:42.975Z,27.60
2022-12-09T17:39:12.982Z,31.57
2022-12-09T17:41:39.604Z,25.98
2022-12-09T17:44:06.618Z,27.35
2022-12-09T17:46:51.364Z,28.63
2022-12-09T17:49:42.067Z,26.70
2022-12-09T17:52:14.714Z,29.80
2022-12-09T17:54:42.793Z,28.75
2022-12-09T17:57:18.217Z,35.50
2022-12-09T17:59:44.686Z,32.00
2022-12-09T18:02:11.348Z,32.00
2022-12-09T18:04:37.817Z,35.43
2022-12-09T18:07:04.368Z,40.45
2022-12-09T18:09:54.350Z,40.53
2022-12-09T18:12:21.222Z,42.03
2022-12-09T18:14:51.947Z,45.22
2022-12-09T18:17:20.353Z,41.33
2022-12-09T18:19:46.937Z,43.50
2022-12-09T18:22:13.379Z,46.25
2022-12-09T18:24:39.828Z,35.78
2022-12-09T18:27:06.326Z,36.38
2022-12-09T18:29:32.894Z,33.13
2022-12-09T18:31:59.805Z,32.63
2022-12-09T18:34:28.132Z,34.40
2022-12-09T18:36:55.171Z,30.83
2022-12-09T18:39:22.923Z,32.13
2022-12-09T18:41:49.488Z,30.93
2022-12-09T18:44:16.421Z,33.40
2022-12-09T18:46:47.918Z,33.45
2022-12-09T18:49:17.109Z,29.90
2022-12-09T18:51:45.142Z,30.98
2022-12-09T18:54:43.209Z,35.23
2022-12-09T18:57:09.652Z,31.40
2022-12-09T18:59:37.136Z,30.98
2022-12-09T19:05:09.105Z,36.90
2022-12-09T19:07:44.290Z,38.90
2022-12-09T19:10:17.531Z,35.40
2022-12-09T19:12:50.603Z,33.30
2022-12-09T19:15:24.685Z,34.88
2022-12-09T19:17:51.138Z,15.00
2022-12-09T19:20:18.860Z,31.93
2022-12-09T19:22:48.280Z,31.40
2022-12-09T19:25:16.042Z,33.30
2022-12-09T19:27:42.585Z,28.30
2022-12-09T19:30:09.839Z,30.58
2022-12-09T19:32:54.687Z,28.50
2022-12-09T19:35:21.152Z,30.98
2022-12-09T19:37:48.048Z,30.90
2022-12-09T19:40:14.452Z,32.60
2022-12-09T19:42:40.888Z,29.73
2022-12-09T19:45:10.711Z,28.30
2022-12-09T19:47:38.712Z,27.80
2022-12-09T19:50:06.071Z,32.25
2022-12-09T19:52:32.824Z,31.08
2022-12-09T19:54:59.530Z,28.33
2022-12-09T19:57:26.049Z,28.70
2022-12-09T19:59:52.533Z,31.13
2022-12-09T20:02:21.992Z,34.10
2022-12-09T20:04:50.032Z,28.23
2022-12-09T20:07:19.639Z,30.42
2022-12-09T20:09:47.555Z,30.17
2022-12-09T20:12:14.626Z,27.77
2022-12-09T20:14:43.555Z,22.92
2022-12-09T20:17:10.257Z,19.70
2022-12-09T20:19:42.259Z,23.33
2022-12-09T20:22:08.810Z,22.60
2022-12-09T20:24:36.149Z,29.60
2022-12-09T20:27:02.654Z,28.80
2022-12-09T20:29:37.216Z,25.27
2022-12-09T20:32:04.940Z,24.38
2022-12-09T20:34:32.503Z,26.30
2022-12-09T20:36:59.227Z,26.50
2022-12-09T20:39:25.821Z,25.73
2022-12-09T20:41:53.755Z,26.08
2022-12-09T20:44:21.597Z,24.98
2022-12-09T20:46:51.157Z,22.07
2022-12-09T20:49:20.165Z,11.45
2022-12-09T20:51:48.980Z,10.63
2022-12-09T20:54:15.734Z,22.13
2022-12-09T20:56:42.648Z,24.67
2022-12-09T20:59:13.792Z,22.50
2022-12-09T21:01:48.473Z,22.60
2022-12-09T21:04:15.475Z,25.00
2022-12-09T21:06:45.185Z,24.73
2022-12-09T21:09:17.412Z,29.90
2022-12-09T21:11:44.387Z,27.90
2022-12-09T21:14:11.579Z,29.15
2022-12-09T21:16:41.513Z,25.20
2022-12-09T21:19:12.196Z,25.92
2022-12-09T21:21:40.507Z,26.92
2022-12-09T21:24:07.521Z,26.57
2022-12-09T21:26:33.951Z,24.80
2022-12-09T21:29:01.158Z,29.30
2022-12-09T21:31:29.823Z,34.78
2022-12-09T21:34:04.190Z,30.23
2022-12-09T21:36:33.253Z,29.10
2022-12-09T21:38:59.910Z,31.20
2022-12-09T21:41:28.879Z,28.50
2022-12-09T21:43:55.727Z,32.53
2022-12-09T21:46:32.466Z,28.05
2022-12-09T21:49:03.686Z,24.13
2022-12-09T21:51:31.288Z,31.73
2022-12-09T21:54:00.082Z,34.03
2022-12-09T21:56:28.578Z,46.08
2022-12-09T21:58:56.138Z,64.57
2022-12-09T22:01:30.897Z,63.60
2022-12-09T22:03:58.945Z,63.13
2022-12-09T22:06:25.848Z,61.20
2022-12-09T22:08:52.293Z,36.97
2022-12-09T22:11:25.343Z,38.20
2022-12-09T22:13:52.547Z,35.17
2022-12-09T22:16:22.196Z,39.88
2022-12-09T22:18:49.835Z,36.35
2022-12-09T22:21:27.439Z,40.35
2022-12-09T22:23:58.194Z,38.33
2022-12-09T22:26:26.958Z,44.43
2022-12-09T22:28:53.995Z,43.00
2022-12-09T22:31:24.045Z,44.83
2022-12-09T22:33:58.407Z,47.70
2022-12-09T22:36:25.138Z,47.30
2022-12-09T22:38:53.652Z,49.13
2022-12-09T22:41:22.688Z,46.72
2022-12-09T22:43:57.622Z,54.75
2022-12-09T22:46:30.706Z,49.30
2022-12-09T22:49:01.411Z,46.92
2022-12-09T22:51:30.062Z,52.73
2022-12-09T22:53:57.349Z,55.17
2022-12-09T22:56:24.527Z,59.22
2022-12-09T22:58:50.998Z,60.65
2022-12-09T23:01:33.872Z,60.85
2022-12-09T23:04:11.329Z,52.60
2022-12-09T23:06:38.816Z,50.03
2022-12-09T23:09:07.124Z,54.10
2022-12-09T23:11:33.581Z,48.65
2022-12-09T23:14:00.341Z,48.40
2022-12-09T23:16:27.180Z,42.00
2022-12-09T23:18:55.565Z,43.85
2022-12-09T23:21:43.654Z,43.00
2022-12-09T23:24:13.099Z,42.10
2022-12-09T23:26:40.841Z,41.00
2022-12-09T23:29:14.301Z,47.87
2022-12-09T23:31:42.587Z,52.45
2022-12-09T23:34:11.244Z,61.90
2022-12-09T23:36:39.699Z,56.10
2022-12-09T23:39:11.422Z,50.03
2022-12-09T23:41:41.426Z,49.17
2022-12-09T23:44:14.649Z,47.38
2022-12-09T23:46:41.642Z,54.47
2022-12-09T23:49:08.752Z,50.30
2022-12-09T23:51:38.029Z,47.38
2022-12-09T23:54:08.605Z,40.20
2022-12-09T23:56:39.329Z,43.88
2022-12-09T23:59:08.611Z,36.97
